createdAt,value
2023-05-14T00:00:44.386Z,78.02
2023-05-14T00:01:44.389Z,77.92
2023-05-14T00:02:44.461Z,77.82
2023-05-14T00:03:44.445Z,77.82
2023-05-14T00:04:44.360Z,78.12
2023-05-14T00:05:44.318Z,78.02
2023-05-14T00:06:44.322Z,78.02
2023-05-14T00:07:44.312Z,77.89
2023-05-14T00:08:44.313Z,77.78
2023-05-14T00:09:44.278Z,77.58
2023-05-14T00:10:44.284Z,77.58
2023-05-14T00:11:44.253Z,77.48
2023-05-14T00:12:44.287Z,77.27
2023-05-14T00:13:44.229Z,77.27
2023-05-14T00:14:44.238Z,77.37
2023-05-14T00:15:44.260Z,76.46
2023-05-14T00:16:44.232Z,75.44
2023-05-14T00:17:44.309Z,75.03
2023-05-14T00:18:44.263Z,75.13
2023-05-14T00:19:44.167Z,75.34
2023-05-14T00:20:44.201Z,75.54
2023-05-14T00:21:44.154Z,75.88
2023-05-14T00:22:44.193Z,75.88
2023-05-14T00:23:44.121Z,75.98
2023-05-14T00:24:44.144Z,76.29
2023-05-14T00:25:44.163Z,76.53
2023-05-14T00:26:44.144Z,77.04
2023-05-14T00:27:44.088Z,77.34
2023-05-14T00:28:44.110Z,77.45
2023-05-14T00:29:44.115Z,77.55
2023-05-14T00:30:44.070Z,77.55
2023-05-14T00:31:44.189Z,77.55
2023-05-14T00:32:44.113Z,77.59
2023-05-14T00:33:44.020Z,77.59
2023-05-14T00:34:44.041Z,77.69
2023-05-14T00:35:44.027Z,77.89
2023-05-14T00:36:44.016Z,78.09
2023-05-14T00:37:43.984Z,78.09
2023-05-14T00:38:43.995Z,78.20
2023-05-14T00:39:43.973Z,78.41
2023-05-14T00:40:43.994Z,78.20
2023-05-14T00:41:43.973Z,78.20
2023-05-14T00:42:43.987Z,78.09
2023-05-14T00:43:43.987Z,78.00
2023-05-14T00:44:43.941Z,77.75
2023-05-14T00:45:43.904Z,77.65
2023-05-14T00:46:44.049Z,77.55
2023-05-14T00:47:43.946Z,77.65
2023-05-14T00:48:43.889Z,77.86
2023-05-14T00:49:43.854Z,78.00
2023-05-14T00:50:43.893Z,78.30
2023-05-14T00:51:43.898Z,78.71
2023-05-14T00:52:43.854Z,78.95
2023-05-14T00:53:43.812Z,79.16
2023-05-14T00:54:43.855Z,79.16
2023-05-14T00:55:43.817Z,79.16
2023-05-14T00:56:43.815Z,79.25
2023-05-14T00:57:43.807Z,79.46
2023-05-14T00:58:43.799Z,79.66
2023-05-14T00:59:43.773Z,79.87
2023-05-14T01:00:43.829Z,80.07
2023-05-14T01:01:43.750Z,80.07
2023-05-14T01:02:43.937Z,80.07
2023-05-14T01:03:43.963Z,80.18
2023-05-14T01:04:43.736Z,80.38
2023-05-14T01:05:43.699Z,80.38
2023-05-14T01:06:43.733Z,80.28
2023-05-14T01:07:43.673Z,80.38
2023-05-14T01:08:43.707Z,80.18
2023-05-14T01:09:43.648Z,80.07
2023-05-14T01:10:43.684Z,80.07
2023-05-14T01:11:43.642Z,80.18
2023-05-14T01:12:43.675Z,80.28
2023-05-14T01:13:43.624Z,80.28
2023-05-14T01:14:43.631Z,80.07
2023-05-14T01:15:43.589Z,80.07
2023-05-14T01:16:43.672Z,79.97
2023-05-14T01:17:43.579Z,80.18
2023-05-14T01:18:43.652Z,80.28
2023-05-14T01:19:43.555Z,80.48
2023-05-14T01:20:43.552Z,80.69
2023-05-14T01:21:43.542Z,80.69
2023-05-14T01:22:43.547Z,80.79
2023-05-14T01:23:43.499Z,80.48
2023-05-14T01:24:43.595Z,80.69
2023-05-14T01:25:43.486Z,80.69
2023-05-14T01:26:43.491Z,80.48
2023-05-14T01:27:43.496Z,80.79
2023-05-14T01:28:43.480Z,80.79
2023-05-14T01:29:43.445Z,80.79
2023-05-14T01:30:43.491Z,80.79
2023-05-14T01:31:43.467Z,80.38
2023-05-14T01:32:43.505Z,79.05
2023-05-14T01:33:43.418Z,79.25
2023-05-14T01:34:43.433Z,79.46
2023-05-14T01:35:43.374Z,79.60
2023-05-14T01:36:43.383Z,79.80
2023-05-14T01:37:43.364Z,80.11
2023-05-14T01:38:43.410Z,80.21
2023-05-14T01:39:43.381Z,80.42
2023-05-14T01:40:43.341Z,80.52
2023-05-14T01:41:43.353Z,80.76
2023-05-14T01:42:43.334Z,80.97
2023-05-14T01:43:43.317Z,81.17
2023-05-14T01:44:43.289Z,81.27
2023-05-14T01:45:43.332Z,81.41
2023-05-14T01:46:43.301Z,81.62
2023-05-14T01:47:43.279Z,81.72
2023-05-14T01:48:43.226Z,81.72
2023-05-14T01:49:43.249Z,81.72
2023-05-14T01:50:43.245Z,81.82
2023-05-14T01:51:43.254Z,81.72
2023-05-14T01:52:43.198Z,81.82
2023-05-14T01:53:43.210Z,81.82
2023-05-14T01:54:43.204Z,81.93
2023-05-14T01:55:43.185Z,81.93
2023-05-14T01:56:43.145Z,81.93
2023-05-14T01:57:43.179Z,81.82
2023-05-14T01:58:43.139Z,81.82
2023-05-14T01:59:43.151Z,81.82
2023-05-14T02:00:43.106Z,81.72
2023-05-14T02:01:43.231Z,81.62
2023-05-14T02:02:43.149Z,81.48
2023-05-14T02:03:43.157Z,81.38
2023-05-14T02:04:43.083Z,81.17
2023-05-14T02:05:43.096Z,81.41
2023-05-14T02:06:43.063Z,81.72
2023-05-14T02:07:43.086Z,81.72
2023-05-14T02:08:43.053Z,81.93
2023-05-14T02:09:43.055Z,82.03
2023-05-14T02:10:43.007Z,82.03
2023-05-14T02:11:43.022Z,82.23
2023-05-14T02:12:43.022Z,82.34
2023-05-14T02:13:43.026Z,82.23
2023-05-14T02:14:42.984Z,82.23
2023-05-14T02:15:43.035Z,82.23
2023-05-14T02:16:42.997Z,82.23
2023-05-14T02:17:43.012Z,82.23
2023-05-14T02:18:42.998Z,82.34
2023-05-14T02:19:42.940Z,82.13
2023-05-14T02:20:42.914Z,81.93
2023-05-14T02:21:42.939Z,81.82
2023-05-14T02:22:42.898Z,81.62
2023-05-14T02:23:42.940Z,81.62
2023-05-14T02:24:42.877Z,81.38
2023-05-14T02:25:42.908Z,81.27
2023-05-14T02:26:42.860Z,81.07
2023-05-14T02:27:42.871Z,80.97
2023-05-14T02:28:42.833Z,80.76
2023-05-14T02:29:42.853Z,80.76
2023-05-14T02:30:42.888Z,80.76
2023-05-14T02:31:42.863Z,80.87
2023-05-14T02:32:42.841Z,80.97
2023-05-14T02:33:42.824Z,81.10
2023-05-14T02:34:42.767Z,81.07
2023-05-14T02:35:43.183Z,81.10
2023-05-14T02:36:42.738Z,81.07
2023-05-14T02:37:43.140Z,81.17
2023-05-14T02:38:42.735Z,81.07
2023-05-14T02:39:42.749Z,81.07
2023-05-14T02:40:42.701Z,81.07
2023-05-14T02:41:43.543Z,80.97
2023-05-14T02:42:42.680Z,80.87
2023-05-14T02:43:42.698Z,80.76
2023-05-14T02:44:42.671Z,80.66
2023-05-14T02:45:42.675Z,80.66
2023-05-14T02:46:42.721Z,80.66
2023-05-14T02:47:42.693Z,80.56
2023-05-14T02:48:42.637Z,80.56
2023-05-14T02:49:42.635Z,80.42
2023-05-14T02:50:42.612Z,80.42
2023-05-14T02:51:42.649Z,80.21
2023-05-14T02:52:42.625Z,80.01
2023-05-14T02:53:42.593Z,79.91
2023-05-14T02:54:42.572Z,79.60
2023-05-14T02:55:42.570Z,79.50
2023-05-14T02:56:42.562Z,79.36
2023-05-14T02:57:42.578Z,79.36
2023-05-14T02:58:42.507Z,79.39
2023-05-14T02:59:42.527Z,79.50
2023-05-14T03:00:43.201Z,79.60
2023-05-14T03:01:42.505Z,79.70
2023-05-14T03:02:42.611Z,79.80
2023-05-14T03:03:42.485Z,79.91
2023-05-14T03:04:42.405Z,79.91
2023-05-14T03:05:42.497Z,79.80
2023-05-14T03:06:42.438Z,79.70
2023-05-14T03:07:42.423Z,79.60
2023-05-14T03:08:42.366Z,79.70
2023-05-14T03:09:42.363Z,79.66
2023-05-14T03:10:42.417Z,79.66
2023-05-14T03:11:42.423Z,79.66
2023-05-14T03:12:42.376Z,79.46
2023-05-14T03:13:42.358Z,79.57
2023-05-14T03:14:42.341Z,79.46
2023-05-14T03:15:48.462Z,79.60
2023-05-14T03:16:42.619Z,80.32
2023-05-14T03:17:42.369Z,80.87
2023-05-14T03:18:42.362Z,81.07
2023-05-14T03:19:42.266Z,81.07
2023-05-14T03:20:43.821Z,81.17
2023-05-14T03:21:42.265Z,81.27
2023-05-14T03:22:42.222Z,81.17
2023-05-14T03:23:42.253Z,81.07
2023-05-14T03:24:42.192Z,80.97
2023-05-14T03:25:42.198Z,81.17
2023-05-14T03:26:42.180Z,81.48
2023-05-14T03:27:42.240Z,81.93
2023-05-14T03:28:42.159Z,82.23
2023-05-14T03:29:42.185Z,82.13
2023-05-14T03:30:42.187Z,82.23
2023-05-14T03:31:42.184Z,82.03
2023-05-14T03:32:42.205Z,81.79
2023-05-14T03:33:42.153Z,81.58
2023-05-14T03:34:42.120Z,81.38
2023-05-14T03:35:42.128Z,81.48
2023-05-14T03:36:42.066Z,81.79
2023-05-14T03:37:42.086Z,81.79
2023-05-14T03:38:42.055Z,82.23
2023-05-14T03:39:42.095Z,82.23
2023-05-14T03:40:42.049Z,82.43
2023-05-14T03:41:42.050Z,82.75
2023-05-14T03:42:42.002Z,82.95
2023-05-14T03:43:42.019Z,82.75
2023-05-14T03:44:42.019Z,82.54
2023-05-14T03:45:41.998Z,82.43
2023-05-14T03:46:41.980Z,82.34
2023-05-14T03:47:42.374Z,82.64
2023-05-14T03:48:42.019Z,82.75
2023-05-14T03:49:41.978Z,82.64
2023-05-14T03:50:41.924Z,82.43
2023-05-14T03:51:41.950Z,82.43
2023-05-14T03:52:41.933Z,82.34
2023-05-14T03:53:41.940Z,82.20
2023-05-14T03:54:41.912Z,82.09
2023-05-14T03:55:41.929Z,81.88
2023-05-14T03:56:41.886Z,81.68
2023-05-14T03:57:41.869Z,81.68
2023-05-14T03:58:41.829Z,81.34
2023-05-14T03:59:41.904Z,81.03
2023-05-14T04:00:41.822Z,80.93
2023-05-14T04:01:41.841Z,80.83
2023-05-14T04:02:41.904Z,80.73
2023-05-14T04:03:42.072Z,80.83
2023-05-14T04:04:41.814Z,80.93
2023-05-14T04:05:41.821Z,81.03
2023-05-14T04:06:41.774Z,81.24
2023-05-14T04:07:41.818Z,81.24
2023-05-14T04:08:41.738Z,81.24
2023-05-14T04:09:41.769Z,81.34
2023-05-14T04:10:41.734Z,81.24
2023-05-14T04:11:41.730Z,81.13
2023-05-14T04:12:41.743Z,81.03
2023-05-14T04:13:41.707Z,81.03
2023-05-14T04:14:41.664Z,80.83
2023-05-14T04:15:41.707Z,80.83
2023-05-14T04:16:41.703Z,80.93
2023-05-14T04:17:41.699Z,80.73
2023-05-14T04:18:41.673Z,80.69
2023-05-14T04:19:41.648Z,80.48
2023-05-14T04:20:41.613Z,80.48
2023-05-14T04:21:41.647Z,80.69
2023-05-14T04:22:41.644Z,80.69
2023-05-14T04:23:41.632Z,80.69
2023-05-14T04:24:41.597Z,80.38
2023-05-14T04:25:41.583Z,80.69
2023-05-14T04:26:41.540Z,80.28
2023-05-14T04:27:41.551Z,80.38
2023-05-14T04:28:41.575Z,80.18
2023-05-14T04:29:41.529Z,80.07
2023-05-14T04:30:41.503Z,80.07
2023-05-14T04:31:41.577Z,79.97
2023-05-14T04:32:41.563Z,79.97
2023-05-14T04:33:41.492Z,79.87
2023-05-14T04:34:41.503Z,79.87
2023-05-14T04:35:41.479Z,79.87
2023-05-14T04:36:41.456Z,79.87
2023-05-14T04:37:41.504Z,79.77
2023-05-14T04:38:41.421Z,80.07
2023-05-14T04:39:41.447Z,80.07
2023-05-14T04:40:41.417Z,80.07
2023-05-14T04:41:41.403Z,80.04
2023-05-14T04:42:41.388Z,80.24
2023-05-14T04:43:41.390Z,80.18
2023-05-14T04:44:41.368Z,79.93
2023-05-14T04:45:41.441Z,79.83
2023-05-14T04:46:41.358Z,79.73
2023-05-14T04:47:41.428Z,79.73
2023-05-14T04:48:41.345Z,79.63
2023-05-14T04:49:41.368Z,79.73
2023-05-14T04:50:41.312Z,79.93
2023-05-14T04:51:41.328Z,80.14
2023-05-14T04:52:41.268Z,80.44
2023-05-14T04:53:41.336Z,80.48
2023-05-14T04:54:41.329Z,80.58
2023-05-14T04:55:41.252Z,80.79
2023-05-14T04:56:41.241Z,80.89
2023-05-14T04:57:41.244Z,80.89
2023-05-14T04:58:41.256Z,80.99
2023-05-14T04:59:41.230Z,80.99
2023-05-14T05:00:41.173Z,80.89
2023-05-14T05:01:41.249Z,80.99
2023-05-14T05:02:41.204Z,80.99
2023-05-14T05:03:41.219Z,80.99
2023-05-14T05:04:41.511Z,80.99
2023-05-14T05:05:41.158Z,80.99
2023-05-14T05:06:41.115Z,80.99
2023-05-14T05:07:41.156Z,81.10
2023-05-14T05:08:41.114Z,81.51
2023-05-14T05:09:41.143Z,81.51
2023-05-14T05:10:41.199Z,81.30
2023-05-14T05:11:41.184Z,81.30
2023-05-14T05:12:41.144Z,81.40
2023-05-14T05:13:41.112Z,81.40
2023-05-14T05:14:41.086Z,81.51
2023-05-14T05:15:41.071Z,81.51
2023-05-14T05:16:41.033Z,81.40
2023-05-14T05:17:41.092Z,81.60
2023-05-14T05:18:41.118Z,81.51
2023-05-14T05:19:44.167Z,81.51
2023-05-14T05:20:40.994Z,81.51
2023-05-14T05:21:41.032Z,81.81
2023-05-14T05:22:41.017Z,82.01
2023-05-14T05:23:41.011Z,82.01
2023-05-14T05:24:40.966Z,82.01
2023-05-14T05:25:40.977Z,81.81
2023-05-14T05:26:40.956Z,81.91
2023-05-14T05:27:40.989Z,82.01
2023-05-14T05:28:40.919Z,81.71
2023-05-14T05:29:40.936Z,81.51
2023-05-14T05:30:40.929Z,81.71
2023-05-14T05:31:40.946Z,81.60
2023-05-14T05:32:40.939Z,81.81
2023-05-14T05:33:40.873Z,81.81
2023-05-14T05:34:40.838Z,81.91
2023-05-14T05:35:40.850Z,82.12
2023-05-14T05:36:40.854Z,82.22
2023-05-14T05:37:40.841Z,82.22
2023-05-14T05:38:40.805Z,82.12
2023-05-14T05:39:41.224Z,82.32
2023-05-14T05:40:40.819Z,82.32
2023-05-14T05:41:40.813Z,82.42
2023-05-14T05:42:40.771Z,82.01
2023-05-14T05:43:40.783Z,81.81
2023-05-14T05:44:40.729Z,81.67
2023-05-14T05:45:40.753Z,81.67
2023-05-14T05:46:40.776Z,81.46
2023-05-14T05:47:40.834Z,81.16
2023-05-14T05:48:42.469Z,80.91
2023-05-14T05:49:40.724Z,80.71
2023-05-14T05:50:40.663Z,80.61
2023-05-14T05:51:40.753Z,80.51
2023-05-14T05:52:40.678Z,80.41
2023-05-14T05:53:40.656Z,80.30
2023-05-14T05:54:40.655Z,80.30
2023-05-14T05:55:40.609Z,80.30
2023-05-14T05:56:40.664Z,80.20
2023-05-14T05:57:40.695Z,80.30
2023-05-14T05:58:40.617Z,81.23
2023-05-14T05:59:40.599Z,81.02
2023-05-14T06:00:40.624Z,80.41
2023-05-14T06:01:40.634Z,80.20
2023-05-14T06:02:40.729Z,80.10
2023-05-14T06:03:40.751Z,80.30
2023-05-14T06:04:40.569Z,80.41
2023-05-14T06:05:40.599Z,80.41
2023-05-14T06:06:40.535Z,80.71
2023-05-14T06:07:40.534Z,80.57
2023-05-14T06:08:40.503Z,80.41
2023-05-14T06:09:40.492Z,80.41
2023-05-14T06:10:40.496Z,80.82
2023-05-14T06:11:40.464Z,80.71
2023-05-14T06:12:40.491Z,80.91
2023-05-14T06:13:40.420Z,81.02
2023-05-14T06:14:40.470Z,80.82
2023-05-14T06:15:40.415Z,80.91
2023-05-14T06:16:40.464Z,81.12
2023-05-14T06:17:40.455Z,81.32
2023-05-14T06:18:40.440Z,81.02
2023-05-14T06:19:45.998Z,80.91
2023-05-14T06:20:40.397Z,80.78
2023-05-14T06:21:40.380Z,80.57
2023-05-14T06:22:40.361Z,80.47
2023-05-14T06:23:40.363Z,80.57
2023-05-14T06:24:40.338Z,80.27
2023-05-14T06:25:40.328Z,79.86
2023-05-14T06:26:40.352Z,80.27
2023-05-14T06:27:40.340Z,80.27
2023-05-14T06:28:40.299Z,80.16
2023-05-14T06:29:40.315Z,79.96
2023-05-14T06:30:40.274Z,79.66
2023-05-14T06:31:40.293Z,79.62
2023-05-14T06:32:40.266Z,79.41
2023-05-14T06:33:40.229Z,79.32
2023-05-14T06:34:40.307Z,79.32
2023-05-14T06:35:40.210Z,78.91
2023-05-14T06:36:40.227Z,78.56
2023-05-14T06:37:40.200Z,78.56
2023-05-14T06:38:40.234Z,78.36
2023-05-14T06:39:40.164Z,78.16
2023-05-14T06:40:40.191Z,78.16
2023-05-14T06:41:40.140Z,77.85
2023-05-14T06:42:40.168Z,77.85
2023-05-14T06:43:40.149Z,77.95
2023-05-14T06:44:40.140Z,77.95
2023-05-14T06:45:40.108Z,77.91
2023-05-14T06:46:40.111Z,77.91
2023-05-14T06:47:40.125Z,77.81
2023-05-14T06:48:40.174Z,77.61
2023-05-14T06:49:40.053Z,77.61
2023-05-14T06:50:40.078Z,77.30
2023-05-14T06:51:40.035Z,77.40
2023-05-14T06:52:40.038Z,77.20
2023-05-14T06:53:40.055Z,77.10
2023-05-14T06:54:40.032Z,77.20
2023-05-14T06:55:40.003Z,77.10
2023-05-14T06:56:40.022Z,76.96
2023-05-14T06:57:40.763Z,76.86
2023-05-14T06:58:40.030Z,76.76
2023-05-14T06:59:39.957Z,76.76
2023-05-14T07:00:39.966Z,76.76
2023-05-14T07:01:39.989Z,76.76
2023-05-14T07:02:39.982Z,76.45
2023-05-14T07:03:39.907Z,76.15
2023-05-14T07:04:40.094Z,76.15
2023-05-14T07:05:39.897Z,76.35
2023-05-14T07:06:39.930Z,76.21
2023-05-14T07:07:39.896Z,75.81
2023-05-14T07:08:39.883Z,75.81
2023-05-14T07:09:39.853Z,75.70
2023-05-14T07:10:39.893Z,75.81
2023-05-14T07:11:39.846Z,75.81
2023-05-14T07:12:39.892Z,75.91
2023-05-14T07:13:39.817Z,75.40
2023-05-14T07:14:39.834Z,75.20
2023-05-14T07:15:39.829Z,75.20
2023-05-14T07:16:39.881Z,75.30
2023-05-14T07:17:39.823Z,75.37
2023-05-14T07:18:39.813Z,75.26
2023-05-14T07:19:39.977Z,75.16
2023-05-14T07:20:39.814Z,74.62
2023-05-14T07:21:39.731Z,74.92
2023-05-14T07:22:39.733Z,74.85
2023-05-14T07:23:39.703Z,75.06
2023-05-14T07:24:39.741Z,75.37
2023-05-14T07:25:39.708Z,75.16
2023-05-14T07:26:39.701Z,75.50
2023-05-14T07:27:39.670Z,75.60
2023-05-14T07:28:39.678Z,75.70
2023-05-14T07:29:39.634Z,75.81
2023-05-14T07:30:39.687Z,75.67
2023-05-14T07:31:39.717Z,75.12
2023-05-14T07:32:39.701Z,74.72
2023-05-14T07:33:39.618Z,73.97
2023-05-14T07:34:39.668Z,73.70
2023-05-14T07:35:39.598Z,73.46
2023-05-14T07:36:40.394Z,73.36
2023-05-14T07:37:39.582Z,73.36
2023-05-14T07:38:39.641Z,73.36
2023-05-14T07:39:39.527Z,73.46
2023-05-14T07:40:39.564Z,73.57
2023-05-14T07:41:39.519Z,73.36
2023-05-14T07:42:39.567Z,73.67
2023-05-14T07:43:39.553Z,72.92
2023-05-14T07:44:39.557Z,72.72
2023-05-14T07:45:39.468Z,72.41
2023-05-14T07:46:39.488Z,72.72
2023-05-14T07:47:39.545Z,72.62
2023-05-14T07:48:39.520Z,72.48
2023-05-14T07:49:39.432Z,72.38
2023-05-14T07:50:39.438Z,72.82
2023-05-14T07:51:39.414Z,72.58
2023-05-14T07:52:39.489Z,72.58
2023-05-14T07:53:39.409Z,72.99
2023-05-14T07:54:39.412Z,72.78
2023-05-14T07:55:39.372Z,72.38
2023-05-14T07:56:39.426Z,71.88
2023-05-14T07:57:39.354Z,72.38
2023-05-14T07:58:39.391Z,72.04
2023-05-14T07:59:39.351Z,71.44
2023-05-14T08:00:39.355Z,71.23
2023-05-14T08:01:39.655Z,71.44
2023-05-14T08:02:39.437Z,71.53
2023-05-14T08:03:39.350Z,71.30
2023-05-14T08:04:39.495Z,71.09
2023-05-14T08:05:39.280Z,71.40
2023-05-14T08:06:39.283Z,70.65
2023-05-14T08:07:39.268Z,69.95
2023-05-14T08:08:39.259Z,70.86
2023-05-14T08:09:39.221Z,70.56
2023-05-14T08:10:39.304Z,70.15
2023-05-14T08:11:39.217Z,70.05
2023-05-14T08:12:39.227Z,69.03
2023-05-14T08:13:39.258Z,69.47
2023-05-14T08:14:39.244Z,70.48
2023-05-14T08:15:39.178Z,69.98
2023-05-14T08:16:39.300Z,70.05
2023-05-14T08:17:39.275Z,69.84
2023-05-14T08:18:39.205Z,69.41
2023-05-14T08:19:39.126Z,69.51
2023-05-14T08:20:39.175Z,68.66
2023-05-14T08:21:39.111Z,68.16
2023-05-14T08:22:39.113Z,68.46
2023-05-14T08:23:39.099Z,68.46
2023-05-14T08:24:39.144Z,69.07
2023-05-14T08:25:39.062Z,67.85
2023-05-14T08:26:39.127Z,66.54
2023-05-14T08:27:39.044Z,66.97
2023-05-14T08:28:39.073Z,67.48
2023-05-14T08:29:39.051Z,67.14
2023-05-14T08:30:39.050Z,66.91
2023-05-14T08:31:39.005Z,65.97
2023-05-14T08:32:39.078Z,66.07
2023-05-14T08:33:38.995Z,65.06
2023-05-14T08:34:39.035Z,66.27
2023-05-14T08:35:38.985Z,65.64
2023-05-14T08:36:38.997Z,64.73
2023-05-14T08:37:38.978Z,65.23
2023-05-14T08:38:38.961Z,64.42
2023-05-14T08:39:38.925Z,64.32
2023-05-14T08:40:38.921Z,64.22
2023-05-14T08:41:38.891Z,64.22
2023-05-14T08:42:38.903Z,63.92
2023-05-14T08:43:38.946Z,64.42
2023-05-14T08:44:38.914Z,64.12
2023-05-14T08:45:38.860Z,63.68
2023-05-14T08:46:38.910Z,63.71
2023-05-14T08:47:38.871Z,63.92
2023-05-14T08:48:38.875Z,63.92
2023-05-14T08:49:38.850Z,63.71
2023-05-14T08:50:38.858Z,63.68
2023-05-14T08:51:38.814Z,62.95
2023-05-14T08:52:38.813Z,62.74
2023-05-14T08:53:38.766Z,62.95
2023-05-14T08:54:38.817Z,62.64
2023-05-14T08:55:38.743Z,63.99
2023-05-14T08:56:38.820Z,63.38
2023-05-14T08:57:38.741Z,62.47
2023-05-14T08:58:38.769Z,62.57
2023-05-14T08:59:38.720Z,62.77
2023-05-14T09:00:38.719Z,63.15
2023-05-14T09:01:38.774Z,62.24
2023-05-14T09:02:38.725Z,62.31
2023-05-14T09:03:38.784Z,61.80
2023-05-14T09:04:38.679Z,61.37
2023-05-14T09:05:38.648Z,60.87
2023-05-14T09:06:38.692Z,61.20
2023-05-14T09:07:38.623Z,62.41
2023-05-14T09:08:38.652Z,63.05
2023-05-14T09:09:38.958Z,63.25
2023-05-14T09:10:38.613Z,62.34
2023-05-14T09:11:38.626Z,61.71
2023-05-14T09:12:38.581Z,61.91
2023-05-14T09:13:38.583Z,62.41
2023-05-14T09:14:38.558Z,61.91
2023-05-14T09:15:38.569Z,61.68
2023-05-14T09:16:38.656Z,61.14
2023-05-14T09:17:38.575Z,60.31
2023-05-14T09:18:38.564Z,60.24
2023-05-14T09:19:38.521Z,61.68
2023-05-14T09:20:38.533Z,61.17
2023-05-14T09:21:38.522Z,61.47
2023-05-14T09:22:41.410Z,61.17
2023-05-14T09:23:45.411Z,59.96
2023-05-14T09:24:38.504Z,59.96
2023-05-14T09:25:38.423Z,60.46
2023-05-14T09:26:38.453Z,61.27
2023-05-14T09:27:38.408Z,61.71
2023-05-14T09:28:38.427Z,61.91
2023-05-14T09:29:38.434Z,62.71
2023-05-14T09:30:38.455Z,61.10
2023-05-14T09:31:38.401Z,60.80
2023-05-14T09:32:38.457Z,59.33
2023-05-14T09:33:38.353Z,58.82
2023-05-14T09:34:38.389Z,58.09
2023-05-14T09:35:38.361Z,57.76
2023-05-14T09:36:38.360Z,58.36
2023-05-14T09:37:38.327Z,57.32
2023-05-14T09:38:38.315Z,56.29
2023-05-14T09:39:38.292Z,56.52
2023-05-14T09:40:38.307Z,55.77
2023-05-14T09:41:38.264Z,57.58
2023-05-14T09:42:38.322Z,56.68
2023-05-14T09:43:38.266Z,56.07
2023-05-14T09:44:38.316Z,56.45
2023-05-14T09:45:38.241Z,56.35
2023-05-14T09:46:38.233Z,54.88
2023-05-14T09:47:38.284Z,54.58
2023-05-14T09:48:52.542Z,54.71
2023-05-14T09:49:38.890Z,55.41
2023-05-14T09:50:38.263Z,55.51
2023-05-14T09:51:38.178Z,55.64
2023-05-14T09:52:38.179Z,55.21
2023-05-14T09:53:38.152Z,54.68
2023-05-14T09:54:38.168Z,54.48
2023-05-14T09:55:38.133Z,54.35
2023-05-14T09:56:38.147Z,53.55
2023-05-14T09:57:38.109Z,55.36
2023-05-14T09:58:38.157Z,54.41
2023-05-14T09:59:38.078Z,54.81
2023-05-14T10:00:38.104Z,55.24
2023-05-14T10:01:38.110Z,56.57
2023-05-14T10:02:38.388Z,58.19
2023-05-14T10:03:38.077Z,57.08
2023-05-14T10:04:38.072Z,58.36
2023-05-14T10:05:38.049Z,57.35
2023-05-14T10:06:44.905Z,56.04
2023-05-14T10:07:38.008Z,55.74
2023-05-14T10:08:38.024Z,55.97
2023-05-14T10:09:37.988Z,56.17
2023-05-14T10:10:38.034Z,56.04
2023-05-14T10:11:37.978Z,56.24
2023-05-14T10:12:37.941Z,56.35
2023-05-14T10:13:37.989Z,56.02
2023-05-14T10:14:37.920Z,56.02
2023-05-14T10:15:37.929Z,56.72
2023-05-14T10:16:37.977Z,56.70
2023-05-14T10:17:37.951Z,55.89
2023-05-14T10:18:37.874Z,56.72
2023-05-14T10:19:37.888Z,56.92
2023-05-14T10:20:37.865Z,57.63
2023-05-14T10:21:37.931Z,57.63
2023-05-14T10:22:37.849Z,57.45
2023-05-14T10:23:37.866Z,58.14
2023-05-14T10:24:37.813Z,57.53
2023-05-14T10:25:37.863Z,57.32
2023-05-14T10:26:37.801Z,55.19
2023-05-14T10:27:37.837Z,55.89
2023-05-14T10:28:37.775Z,55.71
2023-05-14T10:29:37.984Z,56.02
2023-05-14T10:30:37.779Z,55.36
2023-05-14T10:31:37.990Z,53.63
2023-05-14T10:32:37.784Z,53.63
2023-05-14T10:33:37.741Z,55.23
2023-05-14T10:34:37.807Z,53.55
2023-05-14T10:35:37.736Z,53.47
2023-05-14T10:36:37.690Z,54.28
2023-05-14T10:37:37.726Z,53.58
2023-05-14T10:38:37.669Z,54.10
2023-05-14T10:39:37.680Z,54.50
2023-05-14T10:40:37.660Z,55.11
2023-05-14T10:41:37.655Z,55.21
2023-05-14T10:42:37.677Z,55.49
2023-05-14T10:43:37.654Z,54.05
2023-05-14T10:44:37.628Z,53.42
2023-05-14T10:45:37.619Z,53.42
2023-05-14T10:46:37.646Z,52.89
2023-05-14T10:47:37.685Z,51.66
2023-05-14T10:48:37.578Z,51.97
2023-05-14T10:49:43.586Z,51.36
2023-05-14T10:50:37.551Z,50.66
2023-05-14T10:51:37.730Z,50.86
2023-05-14T10:52:37.527Z,50.86
2023-05-14T10:53:37.523Z,50.53
2023-05-14T10:54:37.518Z,50.13
2023-05-14T10:55:37.533Z,50.15
2023-05-14T10:56:37.469Z,52.19
2023-05-14T10:57:37.513Z,51.31
2023-05-14T10:58:37.463Z,53.85
2023-05-14T10:59:37.460Z,53.83
2023-05-14T11:00:37.509Z,53.65
2023-05-14T11:01:37.515Z,52.44
2023-05-14T11:02:37.492Z,54.28
2023-05-14T11:03:37.470Z,54.08
2023-05-14T11:04:37.414Z,54.18
2023-05-14T11:05:37.417Z,53.98
2023-05-14T11:06:37.406Z,54.25
2023-05-14T11:07:37.422Z,53.25
2023-05-14T11:08:37.391Z,53.45
2023-05-14T11:09:37.420Z,53.85
2023-05-14T11:10:37.368Z,53.02
2023-05-14T11:11:37.339Z,52.89
2023-05-14T11:12:37.314Z,51.46
2023-05-14T11:13:37.314Z,50.63
2023-05-14T11:14:37.323Z,51.94
2023-05-14T11:15:37.323Z,49.83
2023-05-14T11:16:37.289Z,50.35
2023-05-14T11:17:37.626Z,51.76
2023-05-14T11:18:37.285Z,51.86
2023-05-14T11:19:37.259Z,51.76
2023-05-14T11:20:37.254Z,51.34
2023-05-14T11:21:37.273Z,50.73
2023-05-14T11:22:37.235Z,51.04
2023-05-14T11:23:37.209Z,51.21
2023-05-14T11:24:37.183Z,50.29
2023-05-14T11:25:37.228Z,50.31
2023-05-14T11:26:37.263Z,50.23
2023-05-14T11:27:37.174Z,50.41
2023-05-14T11:28:37.218Z,49.21
2023-05-14T11:29:37.184Z,47.50
2023-05-14T11:30:37.112Z,46.11
2023-05-14T11:31:37.150Z,45.81
2023-05-14T11:32:37.115Z,46.31
2023-05-14T11:33:37.138Z,46.22
2023-05-14T11:34:37.079Z,46.09
2023-05-14T11:35:37.124Z,45.77
2023-05-14T11:36:37.113Z,47.17
2023-05-14T11:37:37.095Z,47.85
2023-05-14T11:38:37.100Z,45.37
2023-05-14T11:39:37.100Z,45.99
2023-05-14T11:40:37.041Z,46.19
2023-05-14T11:41:37.046Z,46.80
2023-05-14T11:42:37.046Z,45.57
2023-05-14T11:43:37.010Z,46.19
2023-05-14T11:44:36.975Z,46.80
2023-05-14T11:45:36.994Z,45.47
2023-05-14T11:46:37.010Z,45.45
2023-05-14T11:47:37.071Z,45.34
2023-05-14T11:48:36.944Z,45.42
2023-05-14T11:49:36.952Z,45.53
2023-05-14T11:50:37.008Z,45.22
2023-05-14T11:51:36.975Z,45.14
2023-05-14T11:52:36.901Z,45.04
2023-05-14T11:53:36.908Z,45.34
2023-05-14T11:54:42.578Z,45.62
2023-05-14T11:55:36.883Z,45.32
2023-05-14T11:56:36.890Z,44.92
2023-05-14T11:57:36.883Z,45.95
2023-05-14T11:58:36.833Z,46.75
2023-05-14T11:59:36.848Z,45.34
2023-05-14T12:00:36.848Z,45.34
2023-05-14T12:01:36.825Z,44.72
2023-05-14T12:02:36.917Z,44.50
2023-05-14T12:03:37.016Z,43.88
2023-05-14T12:04:36.777Z,43.18
2023-05-14T12:05:36.793Z,43.08
2023-05-14T12:06:36.746Z,42.88
2023-05-14T12:07:36.760Z,42.55
2023-05-14T12:08:36.804Z,42.25
2023-05-14T12:09:36.744Z,42.57
2023-05-14T12:10:36.749Z,42.88
2023-05-14T12:11:36.714Z,42.82
2023-05-14T12:12:36.700Z,43.74
2023-05-14T12:13:36.738Z,44.76
2023-05-14T12:14:36.671Z,45.26
2023-05-14T12:15:36.723Z,45.34
2023-05-14T12:16:38.340Z,43.94
2023-05-14T12:17:36.689Z,44.24
2023-05-14T12:18:36.694Z,45.65
2023-05-14T12:19:36.644Z,46.95
2023-05-14T12:20:36.597Z,48.10
2023-05-14T12:21:36.662Z,47.58
2023-05-14T12:22:37.201Z,46.37
2023-05-14T12:23:36.615Z,47.17
2023-05-14T12:24:36.562Z,48.25
2023-05-14T12:25:36.601Z,48.05
2023-05-14T12:26:36.544Z,49.26
2023-05-14T12:27:36.556Z,52.19
2023-05-14T12:28:38.498Z,57.46
2023-05-14T12:29:36.548Z,58.37
2023-05-14T12:30:36.643Z,59.00
2023-05-14T12:31:36.617Z,63.12
2023-05-14T12:32:36.524Z,61.21
2023-05-14T12:33:36.496Z,61.04
2023-05-14T12:34:37.478Z,61.74
2023-05-14T12:35:36.517Z,61.77
2023-05-14T12:36:36.447Z,62.71
2023-05-14T12:37:36.521Z,61.83
2023-05-14T12:38:36.437Z,61.93
2023-05-14T12:39:36.439Z,62.13
2023-05-14T12:40:36.407Z,65.02
2023-05-14T12:41:36.417Z,63.42
2023-05-14T12:42:36.446Z,61.77
2023-05-14T12:43:36.407Z,57.78
2023-05-14T12:44:36.366Z,57.28
2023-05-14T12:45:36.403Z,56.57
2023-05-14T12:46:36.381Z,55.63
2023-05-14T12:47:36.628Z,57.55
2023-05-14T12:48:36.372Z,55.21
2023-05-14T12:49:36.341Z,55.94
2023-05-14T12:50:36.326Z,53.40
2023-05-14T12:51:36.324Z,52.19
2023-05-14T12:52:39.381Z,53.90